sensor_id;sensor_type;location;lat;lon;timestamp;temperature;humidity
65478;SHT31;53678;39.642;22.430;2023-11-19T00:00:43;8.83;50.67
65478;SHT31;53678;39.642;22.430;2023-11-19T00:03:08;8.86;50.74
65478;SHT31;53678;39.642;22.430;2023-11-19T00:05:36;8.81;50.96
65478;SHT31;53678;39.642;22.430;2023-11-19T00:08:02;8.77;51.13
65478;SHT31;53678;39.642;22.430;2023-11-19T00:10:27;8.81;50.91
65478;SHT31;53678;39.642;22.430;2023-11-19T00:12:53;8.80;50.95
65478;SHT31;53678;39.642;22.430;2023-11-19T00:15:19;8.75;51.25
65478;SHT31;53678;39.642;22.430;2023-11-19T00:17:45;8.72;51.31
65478;SHT31;53678;39.642;22.430;2023-11-19T00:20:16;8.67;51.40
65478;SHT31;53678;39.642;22.430;2023-11-19T00:22:42;8.57;51.85
65478;SHT31;53678;39.642;22.430;2023-11-19T00:25:11;8.57;52.12
65478;SHT31;53678;39.642;22.430;2023-11-19T00:27:36;8.56;52.29
65478;SHT31;53678;39.642;22.430;2023-11-19T00:30:06;8.52;52.69
65478;SHT31;53678;39.642;22.430;2023-11-19T00:32:32;8.56;52.96
65478;SHT31;53678;39.642;22.430;2023-11-19T00:34:59;8.52;53.24
65478;SHT31;53678;39.642;22.430;2023-11-19T00:37:25;8.49;53.15
65478;SHT31;53678;39.642;22.430;2023-11-19T00:39:51;8.25;53.93
65478;SHT31;53678;39.642;22.430;2023-11-19T00:42:17;8.22;53.83
65478;SHT31;53678;39.642;22.430;2023-11-19T00:44:43;8.36;53.60
65478;SHT31;53678;39.642;22.430;2023-11-19T00:47:09;8.35;53.42
65478;SHT31;53678;39.642;22.430;2023-11-19T00:49:34;8.36;53.55
65478;SHT31;53678;39.642;22.430;2023-11-19T00:52:00;8.35;53.46
65478;SHT31;53678;39.642;22.430;2023-11-19T00:54:27;8.38;53.84
65478;SHT31;53678;39.642;22.430;2023-11-19T00:56:53;8.38;53.88
65478;SHT31;53678;39.642;22.430;2023-11-19T00:59:20;8.34;53.81
65478;SHT31;53678;39.642;22.430;2023-11-19T01:01:46;8.09;54.84
65478;SHT31;53678;39.642;22.430;2023-11-19T01:04:16;8.11;55.75
65478;SHT31;53678;39.642;22.430;2023-11-19T01:06:43;7.98;55.33
65478;SHT31;53678;39.642;22.430;2023-11-19T01:09:08;7.95;55.53
65478;SHT31;53678;39.642;22.430;2023-11-19T01:11:35;7.97;55.36
65478;SHT31;53678;39.642;22.430;2023-11-19T01:14:01;7.91;55.64
65478;SHT31;53678;39.642;22.430;2023-11-19T01:16:27;7.94;55.94
65478;SHT31;53678;39.642;22.430;2023-11-19T01:18:53;7.93;55.99
65478;SHT31;53678;39.642;22.430;2023-11-19T01:21:18;7.95;55.95
65478;SHT31;53678;39.642;22.430;2023-11-19T01:23:44;7.93;56.13
65478;SHT31;53678;39.642;22.430;2023-11-19T01:26:11;7.86;56.06
65478;SHT31;53678;39.642;22.430;2023-11-19T01:28:39;7.87;55.96
65478;SHT31;53678;39.642;22.430;2023-11-19T01:31:11;7.93;55.69
65478;SHT31;53678;39.642;22.430;2023-11-19T01:33:38;7.91;55.74
65478;SHT31;53678;39.642;22.430;2023-11-19T01:36:04;7.78;55.45
65478;SHT31;53678;39.642;22.430;2023-11-19T01:38:30;7.83;55.72
65478;SHT31;53678;39.642;22.430;2023-11-19T01:40:58;7.88;55.48
65478;SHT31;53678;39.642;22.430;2023-11-19T01:43:32;7.84;55.72
65478;SHT31;53678;39.642;22.430;2023-11-19T01:45:58;7.78;55.96
65478;SHT31;53678;39.642;22.430;2023-11-19T01:48:24;7.77;55.55
65478;SHT31;53678;39.642;22.430;2023-11-19T01:50:50;7.77;55.20
65478;SHT31;53678;39.642;22.430;2023-11-19T01:53:17;7.84;54.85
65478;SHT31;53678;39.642;22.430;2023-11-19T01:55:44;7.91;54.35
65478;SHT31;53678;39.642;22.430;2023-11-19T01:58:11;7.97;54.53
65478;SHT31;53678;39.642;22.430;2023-11-19T02:00:38;8.02;54.72
65478;SHT31;53678;39.642;22.430;2023-11-19T02:03:06;7.98;54.84
65478;SHT31;53678;39.642;22.430;2023-11-19T02:05:35;7.98;54.40
65478;SHT31;53678;39.642;22.430;2023-11-19T02:08:01;8.01;54.59
65478;SHT31;53678;39.642;22.430;2023-11-19T02:10:27;8.09;54.67
65478;SHT31;53678;39.642;22.430;2023-11-19T02:12:53;7.98;55.02
65478;SHT31;53678;39.642;22.430;2023-11-19T02:15:20;7.95;55.41
65478;SHT31;53678;39.642;22.430;2023-11-19T02:17:50;7.93;55.87
65478;SHT31;53678;39.642;22.430;2023-11-19T02:20:17;7.88;55.97
65478;SHT31;53678;39.642;22.430;2023-11-19T02:22:46;7.84;56.18
65478;SHT31;53678;39.642;22.430;2023-11-19T02:25:32;7.90;56.24
65478;SHT31;53678;39.642;22.430;2023-11-19T02:28:02;7.91;55.00
65478;SHT31;53678;39.642;22.430;2023-11-19T02:30:29;7.95;55.47
65478;SHT31;53678;39.642;22.430;2023-11-19T02:32:56;7.98;55.43
65478;SHT31;53678;39.642;22.430;2023-11-19T02:35:24;7.97;55.48
65478;SHT31;53678;39.642;22.430;2023-11-19T02:37:49;8.01;55.36
65478;SHT31;53678;39.642;22.430;2023-11-19T02:40:15;8.01;55.54
65478;SHT31;53678;39.642;22.430;2023-11-19T02:42:41;7.93;56.05
65478;SHT31;53678;39.642;22.430;2023-11-19T02:45:08;7.93;56.63
65478;SHT31;53678;39.642;22.430;2023-11-19T02:47:40;7.88;55.88
65478;SHT31;53678;39.642;22.430;2023-11-19T02:50:12;7.93;55.84
65478;SHT31;53678;39.642;22.430;2023-11-19T02:52:44;7.91;56.57
65478;SHT31;53678;39.642;22.430;2023-11-19T02:55:11;7.80;56.36
65478;SHT31;53678;39.642;22.430;2023-11-19T02:57:41;7.77;57.02
65478;SHT31;53678;39.642;22.430;2023-11-19T03:00:21;7.63;56.82
65478;SHT31;53678;39.642;22.430;2023-11-19T03:02:57;7.40;57.58
65478;SHT31;53678;39.642;22.430;2023-11-19T03:05:35;7.28;57.97
65478;SHT31;53678;39.642;22.430;2023-11-19T03:08:01;7.25;58.47
65478;SHT31;53678;39.642;22.430;2023-11-19T03:10:26;7.22;58.58
65478;SHT31;53678;39.642;22.430;2023-11-19T03:12:54;7.23;59.21
65478;SHT31;53678;39.642;22.430;2023-11-19T03:15:22;7.19;59.17
65478;SHT31;53678;39.642;22.430;2023-11-19T03:17:48;7.12;59.81
65478;SHT31;53678;39.642;22.430;2023-11-19T03:20:15;7.22;60.04
65478;SHT31;53678;39.642;22.430;2023-11-19T03:22:42;7.18;59.93
65478;SHT31;53678;39.642;22.430;2023-11-19T03:25:09;7.23;60.32
65478;SHT31;53678;39.642;22.430;2023-11-19T03:27:36;7.18;60.50
65478;SHT31;53678;39.642;22.430;2023-11-19T03:30:03;7.20;60.43
65478;SHT31;53678;39.642;22.430;2023-11-19T03:32:33;7.16;60.25
65478;SHT31;53678;39.642;22.430;2023-11-19T03:35:01;7.14;60.40
65478;SHT31;53678;39.642;22.430;2023-11-19T03:37:27;7.08;60.38
65478;SHT31;53678;39.642;22.430;2023-11-19T03:39:54;7.12;61.41
65478;SHT31;53678;39.642;22.430;2023-11-19T03:42:20;7.05;60.92
65478;SHT31;53678;39.642;22.430;2023-11-19T03:44:47;6.97;61.09
65478;SHT31;53678;39.642;22.430;2023-11-19T03:47:12;6.94;61.14
65478;SHT31;53678;39.642;22.430;2023-11-19T03:49:38;6.91;61.14
65478;SHT31;53678;39.642;22.430;2023-11-19T03:52:04;6.85;61.19
65478;SHT31;53678;39.642;22.430;2023-11-19T03:54:31;6.70;62.71
65478;SHT31;53678;39.642;22.430;2023-11-19T03:56:58;6.66;63.25
65478;SHT31;53678;39.642;22.430;2023-11-19T03:59:25;6.32;65.66
65478;SHT31;53678;39.642;22.430;2023-11-19T04:01:51;6.36;65.46
65478;SHT31;53678;39.642;22.430;2023-11-19T04:04:19;6.03;66.17
65478;SHT31;53678;39.642;22.430;2023-11-19T04:06:44;6.13;65.16
65478;SHT31;53678;39.642;22.430;2023-11-19T04:09:10;6.22;64.15
65478;SHT31;53678;39.642;22.430;2023-11-19T04:11:36;6.25;64.22
65478;SHT31;53678;39.642;22.430;2023-11-19T04:14:02;6.34;64.42
65478;SHT31;53678;39.642;22.430;2023-11-19T04:16:27;6.25;64.24
65478;SHT31;53678;39.642;22.430;2023-11-19T04:18:54;6.29;64.17
65478;SHT31;53678;39.642;22.430;2023-11-19T04:21:20;6.33;62.75
65478;SHT31;53678;39.642;22.430;2023-11-19T04:23:45;6.43;62.42
65478;SHT31;53678;39.642;22.430;2023-11-19T04:26:11;6.51;62.63
65478;SHT31;53678;39.642;22.430;2023-11-19T04:28:38;6.57;63.37
65478;SHT31;53678;39.642;22.430;2023-11-19T04:31:04;6.61;64.16
65478;SHT31;53678;39.642;22.430;2023-11-19T04:33:31;6.67;64.62
65478;SHT31;53678;39.642;22.430;2023-11-19T04:35:57;6.67;64.27
65478;SHT31;53678;39.642;22.430;2023-11-19T04:38:22;6.67;63.87
65478;SHT31;53678;39.642;22.430;2023-11-19T04:40:48;6.64;63.49
65478;SHT31;53678;39.642;22.430;2023-11-19T04:43:14;6.60;63.03
65478;SHT31;53678;39.642;22.430;2023-11-19T04:45:40;6.63;62.85
65478;SHT31;53678;39.642;22.430;2023-11-19T04:48:06;6.68;63.00
65478;SHT31;53678;39.642;22.430;2023-11-19T04:50:32;6.70;63.68
65478;SHT31;53678;39.642;22.430;2023-11-19T04:52:58;6.74;63.47
65478;SHT31;53678;39.642;22.430;2023-11-19T04:55:23;6.74;63.96
65478;SHT31;53678;39.642;22.430;2023-11-19T04:57:49;6.77;64.08
65478;SHT31;53678;39.642;22.430;2023-11-19T05:00:15;6.76;63.92
65478;SHT31;53678;39.642;22.430;2023-11-19T05:02:41;6.67;62.77
65478;SHT31;53678;39.642;22.430;2023-11-19T05:05:06;6.64;63.89
65478;SHT31;53678;39.642;22.430;2023-11-19T05:07:32;6.67;64.54
65478;SHT31;53678;39.642;22.430;2023-11-19T05:09:58;6.73;65.04
65478;SHT31;53678;39.642;22.430;2023-11-19T05:12:24;6.78;64.43
65478;SHT31;53678;39.642;22.430;2023-11-19T05:14:50;6.88;63.12
65478;SHT31;53678;39.642;22.430;2023-11-19T05:17:17;6.92;62.77
65478;SHT31;53678;39.642;22.430;2023-11-19T05:19:44;6.97;63.08
65478;SHT31;53678;39.642;22.430;2023-11-19T05:22:10;7.01;63.25
65478;SHT31;53678;39.642;22.430;2023-11-19T05:24:35;7.04;62.79
65478;SHT31;53678;39.642;22.430;2023-11-19T05:27:01;7.09;62.09
65478;SHT31;53678;39.642;22.430;2023-11-19T05:29:27;7.16;61.70
65478;SHT31;53678;39.642;22.430;2023-11-19T05:31:53;7.22;62.52
65478;SHT31;53678;39.642;22.430;2023-11-19T05:34:20;7.23;62.05
65478;SHT31;53678;39.642;22.430;2023-11-19T05:36:46;7.25;62.86
65478;SHT31;53678;39.642;22.430;2023-11-19T05:39:13;7.67;61.25
65478;SHT31;53678;39.642;22.430;2023-11-19T05:41:38;8.70;58.28
65478;SHT31;53678;39.642;22.430;2023-11-19T05:44:04;9.73;56.01
65478;SHT31;53678;39.642;22.430;2023-11-19T05:46:30;10.89;56.78
65478;SHT31;53678;39.642;22.430;2023-11-19T05:48:55;11.56;53.40
65478;SHT31;53678;39.642;22.430;2023-11-19T05:51:21;12.19;50.82
65478;SHT31;53678;39.642;22.430;2023-11-19T05:53:49;12.80;49.18
65478;SHT31;53678;39.642;22.430;2023-11-19T05:56:15;12.91;48.67
65478;SHT31;53678;39.642;22.430;2023-11-19T05:58:47;13.62;48.30
65478;SHT31;53678;39.642;22.430;2023-11-19T06:01:13;14.27;48.03
65478;SHT31;53678;39.642;22.430;2023-11-19T06:03:39;13.77;48.30
65478;SHT31;53678;39.642;22.430;2023-11-19T06:06:05;13.62;47.61
65478;SHT31;53678;39.642;22.430;2023-11-19T06:08:31;13.69;47.84
65478;SHT31;53678;39.642;22.430;2023-11-19T06:10:57;14.52;46.76
65478;SHT31;53678;39.642;22.430;2023-11-19T06:13:23;15.14;44.75
65478;SHT31;53678;39.642;22.430;2023-11-19T06:15:50;13.99;48.17
65478;SHT31;53678;39.642;22.430;2023-11-19T06:18:16;14.85;45.85
65478;SHT31;53678;39.642;22.430;2023-11-19T06:20:45;15.92;43.65
65478;SHT31;53678;39.642;22.430;2023-11-19T06:23:11;16.30;41.90
65478;SHT31;53678;39.642;22.430;2023-11-19T06:25:36;16.59;42.19
65478;SHT31;53678;39.642;22.430;2023-11-19T06:28:03;16.83;41.69
65478;SHT31;53678;39.642;22.430;2023-11-19T06:30:29;17.04;41.77
65478;SHT31;53678;39.642;22.430;2023-11-19T06:32:56;17.36;40.44
65478;SHT31;53678;39.642;22.430;2023-11-19T06:35:22;16.84;42.08
65478;SHT31;53678;39.642;22.430;2023-11-19T06:37:47;16.42;43.58
65478;SHT31;53678;39.642;22.430;2023-11-19T06:40:13;15.94;44.98
65478;SHT31;53678;39.642;22.430;2023-11-19T06:42:41;16.17;44.94
65478;SHT31;53678;39.642;22.430;2023-11-19T06:45:07;15.62;44.35
65478;SHT31;53678;39.642;22.430;2023-11-19T06:47:32;15.59;44.76
65478;SHT31;53678;39.642;22.430;2023-11-19T06:49:58;15.67;43.71
65478;SHT31;53678;39.642;22.430;2023-11-19T06:52:24;15.20;44.21
65478;SHT31;53678;39.642;22.430;2023-11-19T06:54:50;15.29;43.91
65478;SHT31;53678;39.642;22.430;2023-11-19T06:57:16;15.43;43.88
65478;SHT31;53678;39.642;22.430;2023-11-19T06:59:42;14.38;45.01
65478;SHT31;53678;39.642;22.430;2023-11-19T07:02:08;14.61;45.77
65478;SHT31;53678;39.642;22.430;2023-11-19T07:04:34;14.07;46.57
65478;SHT31;53678;39.642;22.430;2023-11-19T07:07:00;13.83;46.81
65478;SHT31;53678;39.642;22.430;2023-11-19T07:09:26;13.01;49.15
65478;SHT31;53678;39.642;22.430;2023-11-19T07:11:52;12.72;49.38
65478;SHT31;53678;39.642;22.430;2023-11-19T07:14:19;11.61;50.30
65478;SHT31;53678;39.642;22.430;2023-11-19T07:16:45;12.04;50.05
65478;SHT31;53678;39.642;22.430;2023-11-19T07:19:15;10.76;52.47
65478;SHT31;53678;39.642;22.430;2023-11-19T07:21:41;10.23;54.01
65478;SHT31;53678;39.642;22.430;2023-11-19T07:24:13;10.27;53.90
65478;SHT31;53678;39.642;22.430;2023-11-19T07:26:46;10.38;54.40
65478;SHT31;53678;39.642;22.430;2023-11-19T07:29:15;11.18;52.66
65478;SHT31;53678;39.642;22.430;2023-11-19T07:31:43;11.15;53.04
65478;SHT31;53678;39.642;22.430;2023-11-19T07:34:12;10.88;53.86
65478;SHT31;53678;39.642;22.430;2023-11-19T07:36:39;9.83;54.42
65478;SHT31;53678;39.642;22.430;2023-11-19T07:39:05;9.89;54.60
65478;SHT31;53678;39.642;22.430;2023-11-19T07:41:31;10.88;58.25
65478;SHT31;53678;39.642;22.430;2023-11-19T07:43:57;11.05;53.16
65478;SHT31;53678;39.642;22.430;2023-11-19T07:46:22;11.05;52.28
65478;SHT31;53678;39.642;22.430;2023-11-19T07:48:48;11.08;52.42
65478;SHT31;53678;39.642;22.430;2023-11-19T07:51:14;11.53;52.16
65478;SHT31;53678;39.642;22.430;2023-11-19T07:53:40;11.79;52.01
65478;SHT31;53678;39.642;22.430;2023-11-19T07:56:07;12.18;51.06
65478;SHT31;53678;39.642;22.430;2023-11-19T07:58:33;12.19;51.08
65478;SHT31;53678;39.642;22.430;2023-11-19T08:01:00;11.89;51.23
65478;SHT31;53678;39.642;22.430;2023-11-19T08:03:25;12.02;50.86
65478;SHT31;53678;39.642;22.430;2023-11-19T08:05:51;11.64;51.24
65478;SHT31;53678;39.642;22.430;2023-11-19T08:08:17;11.85;51.27
65478;SHT31;53678;39.642;22.430;2023-11-19T08:10:42;12.39;50.74
65478;SHT31;53678;39.642;22.430;2023-11-19T08:13:11;12.60;49.95
65478;SHT31;53678;39.642;22.430;2023-11-19T08:15:36;12.53;49.89
65478;SHT31;53678;39.642;22.430;2023-11-19T08:18:02;12.95;52.98
65478;SHT31;53678;39.642;22.430;2023-11-19T08:20:28;13.19;49.76
65478;SHT31;53678;39.642;22.430;2023-11-19T08:22:54;13.39;48.91
65478;SHT31;53678;39.642;22.430;2023-11-19T08:25:20;13.45;48.80
65478;SHT31;53678;39.642;22.430;2023-11-19T08:27:45;13.66;48.77
65478;SHT31;53678;39.642;22.430;2023-11-19T08:30:12;13.69;48.33
65478;SHT31;53678;39.642;22.430;2023-11-19T08:32:38;13.26;48.47
65478;SHT31;53678;39.642;22.430;2023-11-19T08:35:06;13.11;48.92
65478;SHT31;53678;39.642;22.430;2023-11-19T08:37:31;13.39;48.10
65478;SHT31;53678;39.642;22.430;2023-11-19T08:39:57;13.42;48.43
65478;SHT31;53678;39.642;22.430;2023-11-19T08:42:23;13.38;47.81
65478;SHT31;53678;39.642;22.430;2023-11-19T08:44:49;13.01;48.14
65478;SHT31;53678;39.642;22.430;2023-11-19T08:47:16;12.66;47.39
65478;SHT31;53678;39.642;22.430;2023-11-19T08:49:44;12.21;47.03
65478;SHT31;53678;39.642;22.430;2023-11-19T08:52:10;12.39;47.24
65478;SHT31;53678;39.642;22.430;2023-11-19T08:54:36;12.39;46.66
65478;SHT31;53678;39.642;22.430;2023-11-19T08:57:03;13.04;48.11
65478;SHT31;53678;39.642;22.430;2023-11-19T08:59:29;13.26;46.08
65478;SHT31;53678;39.642;22.430;2023-11-19T09:01:56;13.61;47.18
65478;SHT31;53678;39.642;22.430;2023-11-19T09:04:22;13.42;46.12
65478;SHT31;53678;39.642;22.430;2023-11-19T09:06:48;13.39;44.18
65478;SHT31;53678;39.642;22.430;2023-11-19T09:09:14;13.05;44.79
65478;SHT31;53678;39.642;22.430;2023-11-19T09:11:41;13.29;45.84
65478;SHT31;53678;39.642;22.430;2023-11-19T09:14:06;13.43;45.06
65478;SHT31;53678;39.642;22.430;2023-11-19T09:16:32;13.55;44.97
65478;SHT31;53678;39.642;22.430;2023-11-19T09:18:58;13.45;44.48
65478;SHT31;53678;39.642;22.430;2023-11-19T09:21:27;13.74;44.96
65478;SHT31;53678;39.642;22.430;2023-11-19T09:23:55;13.43;44.92
65478;SHT31;53678;39.642;22.430;2023-11-19T09:26:21;12.87;45.90
65478;SHT31;53678;39.642;22.430;2023-11-19T09:28:47;13.24;46.28
65478;SHT31;53678;39.642;22.430;2023-11-19T09:31:15;13.46;46.02
65478;SHT31;53678;39.642;22.430;2023-11-19T09:33:43;13.34;46.78
65478;SHT31;53678;39.642;22.430;2023-11-19T09:36:09;13.34;46.51
65478;SHT31;53678;39.642;22.430;2023-11-19T09:38:36;12.70;46.94
65478;SHT31;53678;39.642;22.430;2023-11-19T09:41:05;12.66;47.22
65478;SHT31;53678;39.642;22.430;2023-11-19T09:43:35;12.68;46.69
65478;SHT31;53678;39.642;22.430;2023-11-19T09:46:05;12.95;46.53
65478;SHT31;53678;39.642;22.430;2023-11-19T09:48:35;12.76;46.05
65478;SHT31;53678;39.642;22.430;2023-11-19T09:51:07;12.56;47.02
65478;SHT31;53678;39.642;22.430;2023-11-19T09:53:33;12.56;47.05
65478;SHT31;53678;39.642;22.430;2023-11-19T09:56:06;12.76;46.57
65478;SHT31;53678;39.642;22.430;2023-11-19T09:58:33;12.97;46.88
65478;SHT31;53678;39.642;22.430;2023-11-19T10:00:59;12.93;47.09
65478;SHT31;53678;39.642;22.430;2023-11-19T10:03:32;12.95;47.19
65478;SHT31;53678;39.642;22.430;2023-11-19T10:06:00;12.95;46.52
65478;SHT31;53678;39.642;22.430;2023-11-19T10:08:27;13.03;45.90
65478;SHT31;53678;39.642;22.430;2023-11-19T10:10:53;13.28;45.66
65478;SHT31;53678;39.642;22.430;2023-11-19T10:13:19;13.45;45.34
65478;SHT31;53678;39.642;22.430;2023-11-19T10:15:45;13.34;45.77
65478;SHT31;53678;39.642;22.430;2023-11-19T10:18:14;13.32;46.24
65478;SHT31;53678;39.642;22.430;2023-11-19T10:20:41;13.10;45.90
65478;SHT31;53678;39.642;22.430;2023-11-19T10:23:07;13.10;45.26
65478;SHT31;53678;39.642;22.430;2023-11-19T10:25:34;13.11;46.04
65478;SHT31;53678;39.642;22.430;2023-11-19T10:28:00;12.97;45.84
65478;SHT31;53678;39.642;22.430;2023-11-19T10:30:30;12.95;46.24
65478;SHT31;53678;39.642;22.430;2023-11-19T10:35:51;13.25;46.07
65478;SHT31;53678;39.642;22.430;2023-11-19T10:38:20;13.28;45.75
65478;SHT31;53678;39.642;22.430;2023-11-19T10:40:50;13.46;45.47
65478;SHT31;53678;39.642;22.430;2023-11-19T10:43:17;13.56;45.55
65478;SHT31;53678;39.642;22.430;2023-11-19T10:45:44;13.65;45.64
65478;SHT31;53678;39.642;22.430;2023-11-19T10:48:10;13.66;45.74
65478;SHT31;53678;39.642;22.430;2023-11-19T10:50:37;13.55;45.45
65478;SHT31;53678;39.642;22.430;2023-11-19T10:53:04;13.66;45.34
65478;SHT31;53678;39.642;22.430;2023-11-19T10:55:35;13.83;45.38
65478;SHT31;53678;39.642;22.430;2023-11-19T10:58:05;13.76;45.35
65478;SHT31;53678;39.642;22.430;2023-11-19T11:00:56;13.76;45.23
65478;SHT31;53678;39.642;22.430;2023-11-19T11:03:26;13.79;45.23
65478;SHT31;53678;39.642;22.430;2023-11-19T11:05:56;13.80;45.06
65478;SHT31;53678;39.642;22.430;2023-11-19T11:08:22;13.86;45.51
65478;SHT31;53678;39.642;22.430;2023-11-19T11:10:57;13.80;45.38
65478;SHT31;53678;39.642;22.430;2023-11-19T11:13:26;13.77;45.41
65478;SHT31;53678;39.642;22.430;2023-11-19T11:15:55;13.46;45.77
65478;SHT31;53678;39.642;22.430;2023-11-19T11:18:23;13.49;45.40
65478;SHT31;53678;39.642;22.430;2023-11-19T11:20:59;13.59;45.66
65478;SHT31;53678;39.642;22.430;2023-11-19T11:26:58;13.48;46.08
65478;SHT31;53678;39.642;22.430;2023-11-19T11:37:34;13.45;45.94
65478;SHT31;53678;39.642;22.430;2023-11-19T11:40:02;13.52;45.93
65478;SHT31;53678;39.642;22.430;2023-11-19T11:42:36;13.80;45.63
65478;SHT31;53678;39.642;22.430;2023-11-19T11:55:26;13.72;45.77
65478;SHT31;53678;39.642;22.430;2023-11-19T11:57:51;13.73;46.27
65478;SHT31;53678;39.642;22.430;2023-11-19T12:00:29;14.03;45.77
65478;SHT31;53678;39.642;22.430;2023-11-19T12:02:56;13.86;45.51
65478;SHT31;53678;39.642;22.430;2023-11-19T12:05:22;13.53;46.13
65478;SHT31;53678;39.642;22.430;2023-11-19T12:07:55;13.58;46.74
65478;SHT31;53678;39.642;22.430;2023-11-19T12:10:29;13.77;46.23
65478;SHT31;53678;39.642;22.430;2023-11-19T12:13:00;13.74;46.06
65478;SHT31;53678;39.642;22.430;2023-11-19T12:15:27;13.69;46.02
65478;SHT31;53678;39.642;22.430;2023-11-19T12:17:54;13.82;46.43
65478;SHT31;53678;39.642;22.430;2023-11-19T12:20:22;13.76;46.04
65478;SHT31;53678;39.642;22.430;2023-11-19T12:22:48;13.80;46.24
65478;SHT31;53678;39.642;22.430;2023-11-19T12:25:16;13.87;46.31
65478;SHT31;53678;39.642;22.430;2023-11-19T12:27:44;13.99;45.99
65478;SHT31;53678;39.642;22.430;2023-11-19T12:30:10;14.16;45.32
65478;SHT31;53678;39.642;22.430;2023-11-19T12:32:40;14.16;45.71
65478;SHT31;53678;39.642;22.430;2023-11-19T12:35:07;13.52;46.25
65478;SHT31;53678;39.642;22.430;2023-11-19T12:37:43;13.39;46.50
65478;SHT31;53678;39.642;22.430;2023-11-19T12:42:40;13.69;46.42
65478;SHT31;53678;39.642;22.430;2023-11-19T12:45:07;13.77;46.48
65478;SHT31;53678;39.642;22.430;2023-11-19T12:47:34;13.93;46.15
65478;SHT31;53678;39.642;22.430;2023-11-19T12:49:59;14.06;46.32
65478;SHT31;53678;39.642;22.430;2023-11-19T12:52:25;13.94;46.52
65478;SHT31;53678;39.642;22.430;2023-11-19T12:54:51;13.96;46.45
65478;SHT31;53678;39.642;22.430;2023-11-19T12:57:17;13.86;46.75
65478;SHT31;53678;39.642;22.430;2023-11-19T12:59:57;13.91;46.63
65478;SHT31;53678;39.642;22.430;2023-11-19T13:02:46;13.90;45.91
65478;SHT31;53678;39.642;22.430;2023-11-19T13:05:29;14.04;46.11
65478;SHT31;53678;39.642;22.430;2023-11-19T13:08:01;14.00;45.90
65478;SHT31;53678;39.642;22.430;2023-11-19T13:10:28;14.01;45.73
65478;SHT31;53678;39.642;22.430;2023-11-19T13:13:08;14.00;45.86
65478;SHT31;53678;39.642;22.430;2023-11-19T13:15:34;14.11;45.58
65478;SHT31;53678;39.642;22.430;2023-11-19T13:18:01;14.14;44.72
65478;SHT31;53678;39.642;22.430;2023-11-19T13:20:28;14.31;45.75
65478;SHT31;53678;39.642;22.430;2023-11-19T13:23:02;14.27;46.20
65478;SHT31;53678;39.642;22.430;2023-11-19T13:25:31;14.38;46.39
65478;SHT31;53678;39.642;22.430;2023-11-19T13:27:57;14.27;46.24
65478;SHT31;53678;39.642;22.430;2023-11-19T13:30:23;14.21;46.42
65478;SHT31;53678;39.642;22.430;2023-11-19T13:32:50;14.28;46.55
65478;SHT31;53678;39.642;22.430;2023-11-19T13:35:17;14.22;46.83
65478;SHT31;53678;39.642;22.430;2023-11-19T13:37:46;14.18;46.75
65478;SHT31;53678;39.642;22.430;2023-11-19T13:40:12;14.21;46.63
65478;SHT31;53678;39.642;22.430;2023-11-19T13:42:42;14.18;47.04
65478;SHT31;53678;39.642;22.430;2023-11-19T13:45:11;14.18;46.55
65478;SHT31;53678;39.642;22.430;2023-11-19T13:47:42;14.11;46.79
65478;SHT31;53678;39.642;22.430;2023-11-19T13:50:10;14.18;46.67
65478;SHT31;53678;39.642;22.430;2023-11-19T13:52:37;14.01;47.18
65478;SHT31;53678;39.642;22.430;2023-11-19T13:55:07;14.09;47.51
65478;SHT31;53678;39.642;22.430;2023-11-19T13:57:34;14.01;47.05
65478;SHT31;53678;39.642;22.430;2023-11-19T14:00:04;13.84;46.84
65478;SHT31;53678;39.642;22.430;2023-11-19T14:02:34;13.84;47.22
65478;SHT31;53678;39.642;22.430;2023-11-19T14:05:00;13.79;47.24
65478;SHT31;53678;39.642;22.430;2023-11-19T14:07:26;13.87;47.00
65478;SHT31;53678;39.642;22.430;2023-11-19T14:09:51;13.84;47.18
65478;SHT31;53678;39.642;22.430;2023-11-19T14:12:17;13.77;47.38
65478;SHT31;53678;39.642;22.430;2023-11-19T14:14:43;13.97;47.51
65478;SHT31;53678;39.642;22.430;2023-11-19T14:17:09;13.86;47.29
65478;SHT31;53678;39.642;22.430;2023-11-19T14:19:36;13.72;47.79
65478;SHT31;53678;39.642;22.430;2023-11-19T14:22:03;13.73;47.91
65478;SHT31;53678;39.642;22.430;2023-11-19T14:24:29;13.74;48.03
65478;SHT31;53678;39.642;22.430;2023-11-19T14:26:56;13.77;47.86
65478;SHT31;53678;39.642;22.430;2023-11-19T14:29:24;13.80;48.04
65478;SHT31;53678;39.642;22.430;2023-11-19T14:31:52;13.63;48.19
65478;SHT31;53678;39.642;22.430;2023-11-19T14:34:20;13.66;48.15
65478;SHT31;53678;39.642;22.430;2023-11-19T14:36:45;13.48;48.20
65478;SHT31;53678;39.642;22.430;2023-11-19T14:39:11;13.41;48.19
65478;SHT31;53678;39.642;22.430;2023-11-19T14:41:37;13.35;48.39
65478;SHT31;53678;39.642;22.430;2023-11-19T14:44:05;13.34;48.89
65478;SHT31;53678;39.642;22.430;2023-11-19T14:46:31;13.35;49.22
65478;SHT31;53678;39.642;22.430;2023-11-19T14:48:57;13.28;49.45
65478;SHT31;53678;39.642;22.430;2023-11-19T14:51:23;13.16;49.61
65478;SHT31;53678;39.642;22.430;2023-11-19T14:53:50;13.05;49.52
65478;SHT31;53678;39.642;22.430;2023-11-19T14:56:16;12.95;49.90
65478;SHT31;53678;39.642;22.430;2023-11-19T14:58:42;12.95;50.64
65478;SHT31;53678;39.642;22.430;2023-11-19T15:01:12;13.45;64.08
65478;SHT31;53678;39.642;22.430;2023-11-19T15:03:38;13.26;55.73
65478;SHT31;53678;39.642;22.430;2023-11-19T15:06:04;13.05;52.48
65478;SHT31;53678;39.642;22.430;2023-11-19T15:08:30;12.84;52.31
65478;SHT31;53678;39.642;22.430;2023-11-19T15:10:55;12.68;52.43
65478;SHT31;53678;39.642;22.430;2023-11-19T15:13:24;12.52;52.49
65478;SHT31;53678;39.642;22.430;2023-11-19T15:15:50;12.43;53.29
65478;SHT31;53678;39.642;22.430;2023-11-19T15:18:15;12.32;53.23
65478;SHT31;53678;39.642;22.430;2023-11-19T15:20:42;12.25;53.71
65478;SHT31;53678;39.642;22.430;2023-11-19T15:23:15;12.16;54.21
65478;SHT31;53678;39.642;22.430;2023-11-19T15:25:42;12.09;54.85
65478;SHT31;53678;39.642;22.430;2023-11-19T15:28:07;12.02;55.00
65478;SHT31;53678;39.642;22.430;2023-11-19T15:30:34;11.98;54.78
65478;SHT31;53678;39.642;22.430;2023-11-19T15:33:00;11.95;55.36
65478;SHT31;53678;39.642;22.430;2023-11-19T15:35:26;11.89;56.05
65478;SHT31;53678;39.642;22.430;2023-11-19T15:37:52;11.85;55.94
65478;SHT31;53678;39.642;22.430;2023-11-19T15:40:18;11.79;56.97
65478;SHT31;53678;39.642;22.430;2023-11-19T15:42:43;11.71;57.08
65478;SHT31;53678;39.642;22.430;2023-11-19T15:45:11;11.64;56.69
65478;SHT31;53678;39.642;22.430;2023-11-19T15:47:37;11.63;56.81
65478;SHT31;53678;39.642;22.430;2023-11-19T15:50:04;11.64;56.76